Time;durP1;ratioP1;P1;durP2;ratioP2;P2;SDS_P1;SDS_P2;PMS_P1;PMS_P2;Temp;Humidity;BMP_temperature;BMP_pressure;BME280_temperature;BME280_humidity;BME280_pressure;Samples;Min_cycle;Max_cycle;Signal;HPM_P1;HPM_P2
2021/10/26 00:02:06;;;;;;;18.02;14.18;;;13.30;99.90;;;;;;5086757;28;20040;-42
2021/10/26 00:04:32;;;;;;;19.67;14.63;;;13.30;99.90;;;;;;5086655;28;20065;-43
2021/10/26 00:06:57;;;;;;;18.17;14.80;;;13.30;99.90;;;;;;5087003;28;20016;-43
2021/10/26 00:09:23;;;;;;;13.95;12.45;;;13.30;99.90;;;;;;5085970;28;20016;-43
2021/10/26 00:11:49;;;;;;;18.27;13.95;;;13.30;99.90;;;;;;5087073;28;20047;-43
2021/10/26 00:14:15;;;;;;;20.85;14.60;;;13.30;99.90;;;;;;5087252;28;20547;-43
2021/10/26 00:16:40;;;;;;;17.05;14.13;;;13.30;99.90;;;;;;5085786;28;20038;-44
2021/10/26 00:19:06;;;;;;;16.13;14.00;;;13.30;99.90;;;;;;5086744;28;20101;-44
2021/10/26 00:21:32;;;;;;;17.25;13.85;;;13.30;99.90;;;;;;5086117;28;20077;-43
2021/10/26 00:23:57;;;;;;;17.65;13.73;;;13.30;99.90;;;;;;5085931;28;20024;-44
2021/10/26 00:26:23;;;;;;;17.50;13.45;;;13.30;99.90;;;;;;5086364;28;20415;-43
2021/10/26 00:28:48;;;;;;;14.82;12.25;;;13.30;99.90;;;;;;5086671;28;20019;-43
2021/10/26 00:31:14;;;;;;;15.77;13.18;;;13.30;99.90;;;;;;5086550;28;20452;-44
2021/10/26 00:33:40;;;;;;;16.17;13.05;;;13.30;99.90;;;;;;5085707;28;20089;-43
2021/10/26 00:36:06;;;;;;;18.83;14.45;;;13.30;99.90;;;;;;5086735;28;20039;-43
2021/10/26 00:38:31;;;;;;;20.67;15.88;;;13.30;99.90;;;;;;5085264;28;20013;-44
2021/10/26 00:40:57;;;;;;;17.80;14.55;;;13.30;99.90;;;;;;5086722;28;20048;-42
2021/10/26 00:43:23;;;;;;;20.65;15.52;;;13.30;99.90;;;;;;5085792;28;20466;-43
2021/10/26 00:45:51;;;;;;;19.17;15.45;;;13.30;99.90;;;;;;5085892;28;20062;-44
2021/10/26 00:48:17;;;;;;;23.08;16.70;;;13.30;99.90;;;;;;5086096;28;20099;-44
2021/10/26 00:50:42;;;;;;;20.95;16.77;;;13.30;99.90;;;;;;5085798;28;20110;-43
2021/10/26 00:53:08;;;;;;;20.48;16.05;;;13.30;99.90;;;;;;5086079;28;20077;-44
2021/10/26 00:55:34;;;;;;;22.02;16.80;;;13.30;99.90;;;;;;5085758;28;20044;-43
2021/10/26 00:58:00;;;;;;;19.40;14.20;;;13.30;99.90;;;;;;5086354;28;20028;-43
2021/10/26 01:00:26;;;;;;;15.45;12.30;;;13.30;99.90;;;;;;5084932;28;20103;-43
2021/10/26 01:02:52;;;;;;;19.92;14.60;;;13.30;99.90;;;;;;5086141;28;20024;-43
2021/10/26 01:05:17;;;;;;;20.92;15.02;;;13.30;99.90;;;;;;5085540;28;20057;-43
2021/10/26 01:07:43;;;;;;;20.15;14.80;;;13.30;99.90;;;;;;5084914;28;20054;-44
2021/10/26 01:10:10;;;;;;;17.48;12.65;;;13.30;99.90;;;;;;5086224;28;20447;-43
2021/10/26 01:12:37;;;;;;;18.52;14.50;;;13.30;99.90;;;;;;5085053;28;20028;-42
2021/10/26 01:15:09;;;;;;;17.50;13.70;;;13.30;99.90;;;;;;5085981;28;20046;-43
2021/10/26 01:17:34;;;;;;;18.17;14.55;;;13.30;99.90;;;;;;5085504;28;20020;-43
2021/10/26 01:20:01;;;;;;;20.15;14.88;;;13.40;99.90;;;;;;5085534;28;20024;-44
2021/10/26 01:22:29;;;;;;;18.20;13.85;;;13.30;99.90;;;;;;5085559;28;20113;-43
2021/10/26 01:24:58;;;;;;;18.38;14.98;;;13.30;99.90;;;;;;5086021;28;20024;-43
2021/10/26 01:27:24;;;;;;;21.27;15.82;;;13.40;99.90;;;;;;5084713;28;20067;-44
2021/10/26 01:29:50;;;;;;;20.30;15.40;;;13.30;99.90;;;;;;5085529;28;20375;-43
2021/10/26 01:32:17;;;;;;;21.05;16.90;;;13.30;99.90;;;;;;5087831;28;20031;-44
2021/10/26 01:34:44;;;;;;;24.55;17.85;;;13.40;99.90;;;;;;5088668;28;20031;-44
2021/10/26 01:37:11;;;;;;;20.50;16.42;;;13.30;99.90;;;;;;5090463;28;20515;-43
2021/10/26 01:39:44;;;;;;;22.55;18.45;;;13.30;99.90;;;;;;5089372;28;20061;-43
2021/10/26 01:42:11;;;;;;;22.55;17.88;;;13.30;99.90;;;;;;5086795;28;20077;-43
2021/10/26 01:44:36;;;;;;;23.05;17.02;;;13.30;99.90;;;;;;5089396;28;20070;-43
2021/10/26 01:47:02;;;;;;;19.75;15.27;;;13.30;99.90;;;;;;5090100;28;20051;-43
2021/10/26 01:49:28;;;;;;;22.55;17.58;;;13.30;99.90;;;;;;5088861;28;20020;-43
2021/10/26 01:51:54;;;;;;;21.33;16.95;;;13.30;99.90;;;;;;5089978;28;20638;-42
2021/10/26 01:54:20;;;;;;;21.48;17.70;;;13.30;99.90;;;;;;5089870;28;20138;-44
2021/10/26 01:56:47;;;;;;;23.20;17.80;;;13.30;99.90;;;;;;5083405;28;20032;-43
2021/10/26 01:59:13;;;;;;;23.00;17.75;;;13.30;99.90;;;;;;5089766;28;20024;-43
2021/10/26 02:01:39;;;;;;;24.23;19.17;;;13.30;99.90;;;;;;5088338;28;20421;-44
2021/10/26 02:04:05;;;;;;;23.52;18.77;;;13.30;99.90;;;;;;5090155;28;20023;-44
2021/10/26 02:06:31;;;;;;;20.23;17.00;;;13.30;99.90;;;;;;5089105;28;20024;-42
2021/10/26 02:08:56;;;;;;;19.55;16.38;;;13.30;99.90;;;;;;5088467;28;20028;-43
2021/10/26 02:11:22;;;;;;;18.40;14.82;;;13.30;99.90;;;;;;5088982;28;20028;-44
2021/10/26 02:13:48;;;;;;;25.13;18.08;;;13.20;99.90;;;;;;5089355;28;20024;-42
2021/10/26 02:16:15;;;;;;;21.85;17.73;;;13.10;99.90;;;;;;5089055;28;20085;-44
2021/10/26 02:18:41;;;;;;;23.48;17.40;;;13.20;99.90;;;;;;5088244;28;20020;-44
2021/10/26 02:21:09;;;;;;;26.98;19.55;;;13.20;99.90;;;;;;5089390;28;20102;-44
2021/10/26 02:23:35;;;;;;;21.75;17.50;;;13.10;99.90;;;;;;5088295;28;20018;-44
2021/10/26 02:26:00;;;;;;;24.85;18.25;;;13.10;99.90;;;;;;5089197;28;20030;-44
2021/10/26 02:28:26;;;;;;;21.33;17.48;;;13.20;99.90;;;;;;5088412;28;20027;-43
2021/10/26 02:30:52;;;;;;;25.98;19.52;;;13.10;99.90;;;;;;5088674;28;20479;-44
2021/10/26 02:33:18;;;;;;;24.73;19.33;;;13.20;99.90;;;;;;5089080;28;20100;-42
2021/10/26 02:35:43;;;;;;;20.30;17.02;;;13.20;99.90;;;;;;5088390;28;20023;-43
2021/10/26 02:38:09;;;;;;;22.50;17.73;;;13.10;99.90;;;;;;5088618;28;20081;-44
2021/10/26 02:40:35;;;;;;;20.98;17.50;;;13.20;99.90;;;;;;5088291;28;20028;-43
2021/10/26 02:43:00;;;;;;;24.30;18.00;;;13.20;99.90;;;;;;5088296;28;20031;-44
2021/10/26 02:45:29;;;;;;;23.50;18.05;;;13.20;99.90;;;;;;5088261;28;20027;-43
2021/10/26 02:47:58;;;;;;;21.40;16.92;;;13.20;99.90;;;;;;5088784;28;20074;-43
2021/10/26 02:50:24;;;;;;;22.58;16.85;;;13.20;99.90;;;;;;5088393;28;20016;-42
2021/10/26 02:52:50;;;;;;;22.63;16.65;;;13.20;99.90;;;;;;5087696;28;20042;-43
2021/10/26 02:55:18;;;;;;;19.20;16.73;;;13.20;99.90;;;;;;5088654;28;20048;-43
2021/10/26 02:57:45;;;;;;;23.27;17.67;;;13.20;99.90;;;;;;5087719;28;20027;-43
2021/10/26 03:00:17;;;;;;;23.67;16.98;;;13.30;99.90;;;;;;5088277;28;20025;-43
2021/10/26 03:02:42;;;;;;;22.67;18.02;;;13.20;99.90;;;;;;5087446;28;20020;-44
2021/10/26 03:05:08;;;;;;;21.73;16.65;;;13.20;99.90;;;;;;5088158;28;20107;-43
2021/10/26 03:07:44;;;;;;;24.08;17.65;;;13.20;99.90;;;;;;5087724;28;20471;-43
2021/10/26 03:10:12;;;;;;;22.85;18.20;;;13.20;99.90;;;;;;5086191;28;20025;-43
2021/10/26 03:12:38;;;;;;;22.40;17.95;;;13.20;99.90;;;;;;5087319;28;20038;-43
2021/10/26 03:15:05;;;;;;;21.33;16.30;;;13.20;99.90;;;;;;5088176;28;20460;-43
2021/10/26 03:17:31;;;;;;;28.45;19.17;;;13.20;99.90;;;;;;5087859;28;20111;-43
2021/10/26 03:19:57;;;;;;;26.73;20.67;;;13.20;99.90;;;;;;5087255;28;20107;-43
2021/10/26 03:22:23;;;;;;;26.67;20.23;;;13.20;99.90;;;;;;5087903;28;20042;-43
2021/10/26 03:24:49;;;;;;;28.73;19.55;;;13.20;99.90;;;;;;5087675;28;20575;-43
2021/10/26 03:27:14;;;;;;;25.05;20.60;;;13.10;99.90;;;;;;5087967;28;20485;-44
2021/10/26 03:30:00;;;;;;;28.10;20.60;;;13.10;99.90;;;;;;5087106;28;20031;-43
2021/10/26 03:32:31;;;;;;;27.92;22.25;;;13.10;99.90;;;;;;5086938;28;20106;-43
2021/10/26 03:34:57;;;;;;;26.23;20.92;;;13.10;99.90;;;;;;5087258;28;20032;-44
2021/10/26 03:37:26;;;;;;;25.85;20.90;;;13.00;99.90;;;;;;5087797;28;20107;-43
2021/10/26 03:39:55;;;;;;;24.42;18.92;;;13.00;99.90;;;;;;5087442;28;20016;-43
2021/10/26 03:42:25;;;;;;;26.95;20.25;;;13.00;99.90;;;;;;5087449;28;20044;-43
2021/10/26 03:44:51;;;;;;;26.73;21.00;;;13.00;99.90;;;;;;5087176;28;20020;-42
2021/10/26 03:47:18;;;;;;;29.00;22.40;;;13.00;99.90;;;;;;5087386;28;20111;-43
2021/10/26 03:49:44;;;;;;;31.83;23.85;;;12.90;99.90;;;;;;5086316;28;20081;-44
2021/10/26 03:52:09;;;;;;;30.70;23.35;;;12.90;99.90;;;;;;5087998;28;20047;-44
2021/10/26 03:54:36;;;;;;;26.40;22.23;;;12.90;99.90;;;;;;5085632;28;20127;-44
2021/10/26 03:57:02;;;;;;;26.80;21.33;;;12.90;99.90;;;;;;5087450;28;20474;-44
2021/10/26 03:59:30;;;;;;;23.75;20.80;;;12.90;99.90;;;;;;5086951;28;20148;-43
2021/10/26 04:01:57;;;;;;;32.50;21.23;;;12.90;99.90;;;;;;5086236;28;20040;-44
2021/10/26 04:04:32;;;;;;;25.45;21.77;;;13.00;99.90;;;;;;5086907;28;20082;-43
2021/10/26 04:06:58;;;;;;;23.83;20.05;;;12.90;99.90;;;;;;5084209;28;20131;-43
2021/10/26 04:09:33;;;;;;;26.17;20.65;;;13.00;99.90;;;;;;5086323;28;20047;-43
2021/10/26 04:14:43;;;;;;;28.95;21.83;;;13.00;99.90;;;;;;5086621;28;20043;-43
2021/10/26 04:17:09;;;;;;;27.45;22.48;;;12.90;99.90;;;;;;5086769;28;20368;-43
2021/10/26 04:19:34;;;;;;;25.30;19.70;;;13.00;99.90;;;;;;5086616;28;20054;-43
2021/10/26 04:22:00;;;;;;;32.95;22.63;;;13.00;99.90;;;;;;5086608;28;20165;-43
2021/10/26 04:24:25;;;;;;;25.25;20.02;;;13.00;99.90;;;;;;5086163;28;20063;-44
2021/10/26 04:26:51;;;;;;;31.83;22.58;;;13.00;99.90;;;;;;5086403;28;20020;-44
2021/10/26 04:29:16;;;;;;;31.95;22.00;;;13.00;99.90;;;;;;5087156;28;20483;-43
2021/10/26 04:31:42;;;;;;;27.13;21.52;;;13.00;99.90;;;;;;5085272;28;20019;-42
2021/10/26 04:34:08;;;;;;;25.27;20.40;;;13.00;99.90;;;;;;5086827;28;20028;-42
2021/10/26 04:36:33;;;;;;;32.53;22.05;;;13.00;99.90;;;;;;5085765;28;20031;-42
2021/10/26 04:38:58;;;;;;;28.20;21.60;;;12.90;99.90;;;;;;5086674;28;20103;-43
2021/10/26 04:41:24;;;;;;;24.02;18.23;;;13.00;99.90;;;;;;5085995;28;20189;-43
2021/10/26 04:43:50;;;;;;;31.75;22.15;;;12.90;99.90;;;;;;5085704;28;20103;-44
2021/10/26 04:46:15;;;;;;;31.40;22.55;;;12.90;99.90;;;;;;5086766;28;20024;-43
2021/10/26 04:48:41;;;;;;;28.20;22.10;;;12.90;99.90;;;;;;5085828;28;20024;-44
2021/10/26 04:51:07;;;;;;;31.50;23.55;;;12.90;99.90;;;;;;5086047;28;20024;-43
2021/10/26 04:53:32;;;;;;;32.25;23.35;;;12.90;99.90;;;;;;5086238;28;20024;-44
2021/10/26 04:55:59;;;;;;;33.65;24.42;;;12.90;99.90;;;;;;5086377;28;20419;-44
2021/10/26 04:58:25;;;;;;;32.15;23.55;;;12.80;99.90;;;;;;5084979;28;20391;-44
2021/10/26 05:00:51;;;;;;;35.42;22.40;;;12.80;99.90;;;;;;5086206;28;20046;-43
2021/10/26 05:03:16;;;;;;;29.02;20.75;;;12.80;99.90;;;;;;5086397;28;20039;-43
2021/10/26 05:05:42;;;;;;;28.63;20.80;;;12.80;99.90;;;;;;5085078;28;20817;-43
2021/10/26 05:08:07;;;;;;;30.83;21.75;;;12.80;99.90;;;;;;5086214;28;20073;-43
2021/10/26 05:10:33;;;;;;;31.00;23.08;;;12.80;99.90;;;;;;5085783;28;20024;-44
2021/10/26 05:12:58;;;;;;;33.13;22.85;;;12.80;99.90;;;;;;5085384;28;20114;-42
2021/10/26 05:15:24;;;;;;;30.60;22.50;;;12.70;99.90;;;;;;5086103;28;20020;-44
2021/10/26 05:17:50;;;;;;;32.20;22.05;;;12.70;99.90;;;;;;5085827;28;20218;-43
2021/10/26 05:20:18;;;;;;;29.50;20.55;;;12.70;99.90;;;;;;5085478;28;20028;-43
2021/10/26 05:22:43;;;;;;;30.15;21.48;;;12.70;99.90;;;;;;5085068;28;20028;-43
2021/10/26 05:25:09;;;;;;;29.30;21.92;;;12.70;99.90;;;;;;5086462;28;20065;-43
2021/10/26 05:27:38;;;;;;;29.02;21.70;;;12.70;99.90;;;;;;5084830;28;20024;-43
2021/10/26 05:30:07;;;;;;;29.38;20.25;;;12.70;99.90;;;;;;5086327;28;20099;-42
2021/10/26 05:32:34;;;;;;;27.63;20.13;;;12.70;99.90;;;;;;5085362;28;20059;-43
2021/10/26 05:34:59;;;;;;;27.23;20.70;;;12.70;99.90;;;;;;5085104;28;20410;-43
2021/10/26 05:37:25;;;;;;;34.08;23.65;;;12.70;99.90;;;;;;5085812;28;20024;-43
2021/10/26 05:39:54;;;;;;;31.30;22.63;;;12.70;99.90;;;;;;5083743;28;20032;-43
2021/10/26 05:42:19;;;;;;;31.95;24.63;;;12.70;99.90;;;;;;5086021;28;20047;-43
2021/10/26 05:44:45;;;;;;;37.22;25.75;;;12.70;99.90;;;;;;5085201;28;20016;-43
2021/10/26 05:47:10;;;;;;;38.15;26.02;;;12.60;99.90;;;;;;5085773;28;20103;-43
2021/10/26 05:49:36;;;;;;;28.52;20.90;;;12.60;99.90;;;;;;5085372;28;20547;-43
2021/10/26 05:52:02;;;;;;;31.75;23.25;;;12.60;99.90;;;;;;5085487;28;20023;-44
2021/10/26 05:54:27;;;;;;;29.58;22.20;;;12.60;99.90;;;;;;5084679;28;20050;-43
2021/10/26 05:56:53;;;;;;;32.08;22.58;;;12.60;99.90;;;;;;5082215;28;20093;-43
2021/10/26 05:59:19;;;;;;;30.08;21.60;;;12.60;99.90;;;;;;5084736;28;20088;-44
2021/10/26 06:01:47;;;;;;;34.92;23.60;;;12.60;99.90;;;;;;5083458;28;20035;-43
2021/10/26 06:04:13;;;;;;;37.60;24.80;;;12.50;99.90;;;;;;5085107;28;20498;-43
2021/10/26 06:06:38;;;;;;;30.83;21.73;;;12.50;99.90;;;;;;5084377;28;20032;-43
2021/10/26 06:09:04;;;;;;;36.55;24.33;;;12.50;99.90;;;;;;5084157;28;20020;-43
2021/10/26 06:11:30;;;;;;;35.22;24.73;;;12.50;99.90;;;;;;5084518;28;20115;-43
2021/10/26 06:14:03;;;;;;;35.58;25.15;;;12.50;99.90;;;;;;5084572;28;20139;-44
2021/10/26 06:16:32;;;;;;;37.13;24.38;;;12.50;99.90;;;;;;5083793;28;20593;-42
2021/10/26 06:18:58;;;;;;;28.42;21.38;;;12.50;99.90;;;;;;5086785;28;20032;-43
2021/10/26 06:21:25;;;;;;;28.70;19.92;;;12.60;99.90;;;;;;5088561;28;20024;-44
2021/10/26 06:23:53;;;;;;;36.10;24.95;;;12.60;99.90;;;;;;5088353;28;20085;-44
2021/10/26 06:26:21;;;;;;;36.35;25.05;;;12.60;99.90;;;;;;5089519;28;20073;-43
2021/10/26 06:28:47;;;;;;;34.17;24.23;;;12.60;99.90;;;;;;5088878;28;20024;-44
2021/10/26 06:31:13;;;;;;;40.22;25.02;;;12.50;99.90;;;;;;5088496;28;20483;-43
2021/10/26 06:33:38;;;;;;;34.72;22.77;;;12.60;99.90;;;;;;5088479;28;20031;-44
2021/10/26 06:36:04;;;;;;;36.30;23.45;;;12.50;99.90;;;;;;5088392;28;20028;-43
2021/10/26 06:38:30;;;;;;;40.65;27.65;;;12.50;99.90;;;;;;5088817;28;20028;-44
2021/10/26 06:40:55;;;;;;;39.83;27.55;;;12.50;99.90;;;;;;5088364;28;20046;-43
2021/10/26 06:43:21;;;;;;;45.65;29.17;;;12.50;99.90;;;;;;5088340;28;20478;-44
2021/10/26 06:45:47;;;;;;;39.17;27.55;;;12.40;99.90;;;;;;5088559;28;20024;-46
2021/10/26 06:48:17;;;;;;;41.75;27.75;;;12.50;99.90;;;;;;5089107;28;20115;-44
2021/10/26 06:50:42;;;;;;;40.83;26.52;;;12.50;99.90;;;;;;5087265;28;20110;-42
2021/10/26 06:53:11;;;;;;;40.35;25.63;;;12.50;99.90;;;;;;5088734;28;20027;-43
2021/10/26 06:55:36;;;;;;;34.17;22.20;;;12.50;99.90;;;;;;5089804;28;20544;-43
2021/10/26 06:58:02;;;;;;;35.67;23.10;;;12.50;99.90;;;;;;5085166;28;20082;-44
2021/10/26 07:00:27;;;;;;;39.28;24.27;;;12.50;99.90;;;;;;5088241;28;20032;-43
2021/10/26 07:02:55;;;;;;;35.00;23.83;;;12.60;99.90;;;;;;5088555;28;20073;-43
2021/10/26 07:05:25;;;;;;;36.67;24.35;;;12.50;99.90;;;;;;5087982;28;20028;-43
2021/10/26 07:07:51;;;;;;;34.33;24.30;;;12.60;99.90;;;;;;5085596;28;20131;-43
2021/10/26 07:10:23;;;;;;;37.20;24.40;;;12.50;99.90;;;;;;5087591;28;20111;-44
2021/10/26 07:12:49;;;;;;;36.70;23.20;;;12.60;99.90;;;;;;5084515;28;20775;-44
2021/10/26 07:15:18;;;;;;;37.15;24.17;;;12.60;99.90;;;;;;5085836;28;20111;-43
2021/10/26 07:17:46;;;;;;;41.00;26.30;;;12.60;99.90;;;;;;5086716;28;20024;-43
2021/10/26 07:20:14;;;;;;;36.45;23.85;;;12.60;99.90;;;;;;5088011;28;20020;-44
2021/10/26 07:22:41;;;;;;;39.03;25.08;;;12.60;99.90;;;;;;5086865;28;20035;-44
2021/10/26 07:25:10;;;;;;;42.05;26.83;;;12.60;99.90;;;;;;5088236;28;20059;-42
2021/10/26 07:27:37;;;;;;;45.83;28.33;;;12.70;99.90;;;;;;5087464;28;20031;-42
2021/10/26 07:30:08;;;;;;;37.58;25.52;;;12.70;99.90;;;;;;5086811;28;20035;-43
2021/10/26 07:32:34;;;;;;;37.20;24.40;;;12.70;99.90;;;;;;5086941;28;20026;-43
2021/10/26 07:35:00;;;;;;;38.97;24.13;;;12.70;99.90;;;;;;5086789;28;20039;-42
2021/10/26 07:37:33;;;;;;;37.55;24.17;;;12.70;99.90;;;;;;5084204;28;20028;-43
2021/10/26 07:39:59;;;;;;;38.88;24.63;;;12.70;99.90;;;;;;5082526;28;20028;-43
2021/10/26 07:42:24;;;;;;;35.70;23.83;;;12.80;99.90;;;;;;5086961;28;20196;-43
2021/10/26 07:44:51;;;;;;;34.45;22.83;;;12.80;99.90;;;;;;5086244;28;20051;-43
2021/10/26 07:47:20;;;;;;;36.28;24.52;;;12.80;99.90;;;;;;5084043;28;20359;-44
2021/10/26 07:49:50;;;;;;;43.05;26.92;;;12.80;99.90;;;;;;5085186;28;20027;-43
2021/10/26 07:52:16;;;;;;;41.95;25.23;;;12.80;99.90;;;;;;5087980;28;20032;-43
2021/10/26 07:54:49;;;;;;;39.72;24.70;;;12.90;99.90;;;;;;5086610;28;20236;-43
2021/10/26 07:57:15;;;;;;;37.60;24.23;;;12.80;99.90;;;;;;5087312;28;20757;-43
2021/10/26 07:59:45;;;;;;;39.10;26.20;;;12.90;99.90;;;;;;5084631;28;20027;-44
2021/10/26 08:02:13;;;;;;;37.65;26.65;;;12.90;99.90;;;;;;5086703;28;20036;-43
2021/10/26 08:04:39;;;;;;;37.40;24.42;;;12.90;99.90;;;;;;5085329;28;20020;-43
2021/10/26 08:07:07;;;;;;;41.67;26.27;;;12.90;99.90;;;;;;5086390;28;20059;-43
2021/10/26 08:09:33;;;;;;;36.00;23.98;;;12.90;99.90;;;;;;5085631;28;20091;-44
2021/10/26 08:11:58;;;;;;;36.55;23.23;;;12.90;99.90;;;;;;5085697;28;20078;-43
2021/10/26 08:14:24;;;;;;;31.10;21.33;;;13.00;99.90;;;;;;5085126;28;20561;-44
2021/10/26 08:16:49;;;;;;;40.83;24.80;;;13.00;99.90;;;;;;5086154;28;20049;-43
2021/10/26 08:19:15;;;;;;;38.97;24.77;;;13.00;99.90;;;;;;5086190;28;20077;-43
2021/10/26 08:21:41;;;;;;;40.60;25.88;;;13.10;99.90;;;;;;5082995;28;20032;-43
2021/10/26 08:24:08;;;;;;;39.05;25.20;;;13.10;99.90;;;;;;5085214;28;20020;-42
2021/10/26 08:26:38;;;;;;;36.83;23.98;;;13.10;99.90;;;;;;5085284;28;20054;-43
2021/10/26 08:29:31;;;;;;;32.63;22.23;;;13.20;99.90;;;;;;5084366;28;20028;-44
2021/10/26 08:37:07;;;;;;;36.80;23.05;;;13.30;99.90;;;;;;5085451;28;20040;-44
2021/10/26 08:39:35;;;;;;;34.90;22.23;;;13.30;99.90;;;;;;5083799;28;20147;-44
2021/10/26 08:42:02;;;;;;;33.50;22.33;;;13.40;99.90;;;;;;5082548;28;20043;-43
2021/10/26 08:44:28;;;;;;;29.85;20.80;;;13.40;99.90;;;;;;5084561;28;20589;-43
2021/10/26 08:46:54;;;;;;;34.47;21.67;;;13.50;99.90;;;;;;5085004;28;20027;-44
2021/10/26 08:49:21;;;;;;;39.03;24.55;;;13.50;99.90;;;;;;5085396;28;20116;-43
2021/10/26 08:51:48;;;;;;;39.00;24.50;;;13.60;99.90;;;;;;5082640;28;20024;-42
2021/10/26 08:54:14;;;;;;;31.65;20.85;;;13.60;99.90;;;;;;5085167;28;20055;-44
2021/10/26 08:56:40;;;;;;;37.00;23.70;;;13.70;99.90;;;;;;5082314;28;20024;-44
2021/10/26 08:59:07;;;;;;;32.47;22.33;;;13.70;99.90;;;;;;5085505;28;20104;-43
2021/10/26 09:01:33;;;;;;;38.10;23.67;;;13.80;99.90;;;;;;5083459;28;20024;-43
2021/10/26 09:04:10;;;;;;;36.22;23.35;;;13.80;99.90;;;;;;5083994;28;20847;-43
2021/10/26 09:06:47;;;;;;;32.55;23.45;;;13.80;99.90;;;;;;5084161;28;20075;-43
2021/10/26 09:09:16;;;;;;;42.75;25.92;;;13.80;99.90;;;;;;5084473;28;20099;-44
2021/10/26 09:17:48;;;;;;;33.45;22.52;;;13.60;99.90;;;;;;5084814;28;20805;-44
2021/10/26 09:20:16;;;;;;;41.97;25.85;;;13.70;99.90;;;;;;5084920;28;20016;-43
2021/10/26 09:22:56;;;;;;;39.85;23.25;;;13.60;99.90;;;;;;5066108;28;20048;-44
2021/10/26 09:25:36;;;;;;;32.53;22.10;;;13.70;99.90;;;;;;5046740;28;20017;-44
2021/10/26 09:28:17;;;;;;;36.63;24.80;;;13.70;99.90;;;;;;5042273;28;20036;-43
2021/10/26 09:31:01;;;;;;;36.53;23.55;;;13.70;99.90;;;;;;5041413;28;20039;-42
2021/10/26 09:33:40;;;;;;;34.85;22.13;;;13.70;99.90;;;;;;5042822;28;20029;-43
2021/10/26 09:36:25;;;;;;;29.73;20.55;;;13.70;99.90;;;;;;5051609;28;20048;-43
2021/10/26 09:39:06;;;;;;;24.10;18.20;;;13.80;99.90;;;;;;5044985;28;20111;-43
2021/10/26 09:41:36;;;;;;;32.95;21.60;;;13.90;99.90;;;;;;5045141;28;20404;-44
2021/10/26 09:44:16;;;;;;;28.73;19.70;;;14.00;99.90;;;;;;5052684;28;20540;-43
2021/10/26 09:47:00;;;;;;;25.73;17.67;;;14.10;99.90;;;;;;5048142;28;20056;-44
2021/10/26 09:49:29;;;;;;;26.67;18.77;;;14.10;99.90;;;;;;5044927;28;20021;-43
2021/10/26 09:52:15;;;;;;;25.85;18.00;;;14.10;99.90;;;;;;5024100;28;20037;-44
2021/10/26 09:54:41;;;;;;;24.30;16.88;;;14.10;99.90;;;;;;5028847;28;20078;-43
2021/10/26 09:57:10;;;;;;;23.17;15.48;;;14.10;99.90;;;;;;5045748;28;20136;-43
2021/10/26 09:59:37;;;;;;;17.90;13.68;;;14.00;99.90;;;;;;5055749;28;20464;-43
2021/10/26 10:02:03;;;;;;;19.38;12.35;;;14.00;99.90;;;;;;5048316;28;20044;-42
2021/10/26 10:04:33;;;;;;;18.15;12.73;;;14.00;99.90;;;;;;5051512;28;20024;-44
2021/10/26 10:06:59;;;;;;;18.08;12.65;;;14.00;99.90;;;;;;5047562;28;20036;-43
2021/10/26 10:09:25;;;;;;;15.05;11.75;;;14.10;99.90;;;;;;5051108;28;20111;-44
2021/10/26 10:12:04;;;;;;;18.77;12.48;;;14.10;99.90;;;;;;5048653;28;20021;-43
2021/10/26 10:14:31;;;;;;;17.92;11.15;;;14.20;99.90;;;;;;5057181;28;20106;-44
2021/10/26 10:16:57;;;;;;;21.55;13.85;;;14.20;99.90;;;;;;5047989;28;20029;-43
2021/10/26 10:19:23;;;;;;;17.70;12.88;;;14.30;99.90;;;;;;5056269;28;20037;-43
2021/10/26 10:21:50;;;;;;;17.58;13.13;;;14.40;99.90;;;;;;5048087;28;20080;-43
2021/10/26 10:24:18;;;;;;;17.75;13.10;;;14.40;99.90;;;;;;5053795;28;20025;-43
2021/10/26 10:26:50;;;;;;;16.23;12.05;;;14.50;99.90;;;;;;5047851;28;20052;-42
2021/10/26 10:29:17;;;;;;;15.95;11.48;;;14.50;99.90;;;;;;5051704;28;20021;-44
2021/10/26 10:31:44;;;;;;;16.17;10.82;;;14.50;99.90;;;;;;5048582;28;20013;-43
2021/10/26 10:34:10;;;;;;;15.10;11.05;;;14.50;99.90;;;;;;5050053;28;20032;-44
2021/10/26 10:36:40;;;;;;;19.15;12.68;;;14.50;99.90;;;;;;5048551;28;20480;-43
2021/10/26 10:39:10;;;;;;;17.42;11.73;;;14.50;99.90;;;;;;5049441;28;20095;-43
2021/10/26 10:42:13;;;;;;;19.05;12.85;;;14.50;99.90;;;;;;5042465;28;20115;-44
2021/10/26 10:44:40;;;;;;;21.67;13.55;;;14.40;99.90;;;;;;5047437;28;20055;-43
2021/10/26 10:47:11;;;;;;;19.48;12.70;;;14.40;99.90;;;;;;5052518;28;20025;-43
2021/10/26 10:49:43;;;;;;;16.58;11.82;;;14.40;99.90;;;;;;5049638;28;20035;-44
2021/10/26 10:52:29;;;;;;;18.38;12.68;;;14.40;99.90;;;;;;5050217;28;20032;-44
2021/10/26 10:54:56;;;;;;;15.10;10.68;;;14.30;99.90;;;;;;5054130;28;20052;-44
2021/10/26 10:57:36;;;;;;;13.98;10.30;;;14.30;99.90;;;;;;5046459;28;20394;-44
2021/10/26 11:00:18;;;;;;;13.90;8.52;;;14.40;99.90;;;;;;5050892;28;20376;-43
2021/10/26 11:02:46;;;;;;;14.38;9.82;;;14.40;99.90;;;;;;5047541;28;20045;-43
2021/10/26 11:05:35;;;;;;;16.35;10.80;;;14.40;99.90;;;;;;5049898;28;20099;-44
2021/10/26 11:08:02;;;;;;;16.17;10.73;;;14.40;99.90;;;;;;5055139;28;20037;-43
2021/10/26 11:10:50;;;;;;;13.80;10.93;;;14.40;99.90;;;;;;5052358;28;20098;-43
2021/10/26 11:13:18;;;;;;;17.52;12.55;;;14.40;99.90;;;;;;5053251;28;20112;-43
2021/10/26 11:15:47;;;;;;;17.52;12.10;;;14.40;99.90;;;;;;5053285;28;20013;-43
2021/10/26 11:18:38;;;;;;;15.07;11.23;;;14.40;99.90;;;;;;5051137;28;20035;-43
2021/10/26 11:21:10;;;;;;;17.42;11.32;;;14.30;99.90;;;;;;5048762;28;20044;-43
2021/10/26 11:23:37;;;;;;;12.00;8.75;;;14.20;99.90;;;;;;5050116;28;20028;-43
2021/10/26 11:26:30;;;;;;;16.20;12.52;;;14.20;99.90;;;;;;5046010;28;20511;-43
2021/10/26 11:28:57;;;;;;;;;;;14.20;99.90;;;;;;5048097;28;20656;-43
2021/10/26 11:31:24;;;;;;;15.70;11.50;;;14.20;99.90;;;;;;5048225;28;19909;-44
2021/10/26 11:33:56;;;;;;;19.33;12.73;;;14.20;99.90;;;;;;5046690;28;20053;-44
2021/10/26 11:36:21;;;;;;;18.42;12.18;;;14.30;99.90;;;;;;5049814;28;20052;-44
2021/10/26 11:38:51;;;;;;;16.48;12.32;;;14.30;99.90;;;;;;5035639;28;20453;-43
2021/10/26 11:41:21;;;;;;;17.73;12.00;;;14.40;99.90;;;;;;5036374;28;20128;-44
2021/10/26 11:43:50;;;;;;;18.67;12.50;;;14.50;99.90;;;;;;5035223;28;20469;-43
2021/10/26 11:46:25;;;;;;;20.42;12.23;;;14.60;99.90;;;;;;5037461;28;20025;-43
2021/10/26 11:49:12;;;;;;;16.48;11.95;;;14.60;99.90;;;;;;5035697;28;20032;-44
2021/10/26 11:51:43;;;;;;;19.55;11.80;;;14.70;99.90;;;;;;5038509;28;20032;-43
2021/10/26 11:54:15;;;;;;;14.57;10.13;;;14.80;99.90;;;;;;5034849;28;20041;-43
2021/10/26 11:56:49;;;;;;;14.25;11.02;;;14.80;99.90;;;;;;5039152;28;20484;-43
2021/10/26 11:59:26;;;;;;;13.88;10.60;;;14.90;99.90;;;;;;5042148;28;20097;-42
2021/10/26 12:01:54;;;;;;;16.17;11.10;;;15.00;99.90;;;;;;5045119;28;20124;-44
2021/10/26 12:04:22;;;;;;;17.35;11.15;;;15.00;99.90;;;;;;5042117;28;20083;-43
2021/10/26 12:06:50;;;;;;;15.25;9.15;;;15.00;99.90;;;;;;5032429;28;20136;-44
2021/10/26 12:09:16;;;;;;;17.35;11.32;;;15.10;99.90;;;;;;5029753;28;20463;-44
2021/10/26 12:11:45;;;;;;;12.85;9.27;;;15.20;99.90;;;;;;5033552;28;20468;-43
2021/10/26 12:14:20;;;;;;;14.52;9.77;;;15.30;99.90;;;;;;5032841;28;20025;-43
2021/10/26 12:17:04;;;;;;;19.77;12.07;;;15.30;99.90;;;;;;5033654;28;20067;-44
2021/10/26 12:19:31;;;;;;;15.55;9.77;;;15.30;99.90;;;;;;5033304;28;20036;-44
2021/10/26 12:21:57;;;;;;;17.50;10.13;;;15.30;99.90;;;;;;5031956;28;20041;-43
2021/10/26 12:24:27;;;;;;;12.93;9.02;;;15.20;99.90;;;;;;5032885;28;20025;-44
2021/10/26 12:27:06;;;;;;;11.38;8.63;;;15.20;99.90;;;;;;5032236;28;20522;-43
2021/10/26 12:29:37;;;;;;;11.63;9.10;;;15.30;99.90;;;;;;5032535;28;20150;-43
2021/10/26 12:32:04;;;;;;;11.10;8.70;;;15.30;99.90;;;;;;5034434;28;20429;-43
2021/10/26 12:34:35;;;;;;;14.90;8.88;;;15.40;99.90;;;;;;5028802;28;20104;-44
2021/10/26 12:37:32;;;;;;;11.90;7.95;;;15.40;99.90;;;;;;5035913;28;20059;-44
2021/10/26 12:40:03;;;;;;;12.68;7.63;;;15.40;99.90;;;;;;5042564;28;20029;-44
2021/10/26 12:42:40;;;;;;;12.95;8.13;;;15.50;99.90;;;;;;5043925;28;20040;-43
2021/10/26 12:45:12;;;;;;;11.35;7.32;;;15.50;99.90;;;;;;5053248;28;20124;-43
2021/10/26 12:47:56;;;;;;;10.90;7.72;;;15.60;99.90;;;;;;5045121;28;20031;-44
2021/10/26 12:50:32;;;;;;;11.57;7.22;;;15.60;99.90;;;;;;5052704;28;20023;-44